Fife, Texas
Current Conditions -  °F | °C
As of 3:35 PM on Thursday 23 Oct 2014 (Local Time) from KBBD Reporting Station
Broken Clouds Broken Clouds  
Wind Chill: 81°   Ceiling: 6000
Heat Index: 81°   Visibility: 10mi
Dew Point: 55°   Wind: 7mph
Humidity: 42%   Direction: 140°SE
Pressure: 30.08"   Gusts: NA
Location:  31.063°N, 99.3372°W
Report Text: KBBD 232035Z AUTO 14006KT 10SM BKN060 27/13 A3008 RMK
Loading
Personal Weather Stations






























Interactive Weather Map
Tropical Storm Tracking
New forecast layout! Learn more

10-Day Weather Forecast

Advertisements
Track Severe Weather on mobile